sensor_id;sensor_type;location;lat;lon;timestamp;pressure;altitude;pressure_sealevel;temperature;humidity
78843;BME280;70542;53.774;-0.352;2024-03-02T00:05:42;99250;;;9.082;43
78843;BME280;70542;53.774;-0.352;2024-03-02T00:11:38;99250;;;9.447;44
78843;BME280;70542;53.774;-0.352;2024-03-02T00:17:34;99250;;;8.73;46
78843;BME280;70542;53.774;-0.352;2024-03-02T00:23:41;99240;;;9.187;45
78843;BME280;70542;53.774;-0.352;2024-03-02T00:29:37;99240;;;8.943;45
78843;BME280;70542;53.774;-0.352;2024-03-02T00:35:45;99240;;;9.064;47
78843;BME280;70542;53.774;-0.352;2024-03-02T00:41:53;99240;;;9.624;44
78843;BME280;70542;53.774;-0.352;2024-03-02T00:48:01;99240;;;9.612;43
78843;BME280;70542;53.774;-0.352;2024-03-02T00:54:09;99240;;;9.558;43
78843;BME280;70542;53.774;-0.352;2024-03-02T01:00:07;99240;;;9.804;44
78843;BME280;70542;53.774;-0.352;2024-03-02T01:06:09;99240;;;9.722;44
78843;BME280;70542;53.774;-0.352;2024-03-02T01:12:06;99240;;;9.414;43
78843;BME280;70542;53.774;-0.352;2024-03-02T01:18:02;99230;;;9.374;43
78843;BME280;70542;53.774;-0.352;2024-03-02T01:24:10;99230;;;9.556;43
78843;BME280;70542;53.774;-0.352;2024-03-02T01:30:18;99230;;;9.459;43
78843;BME280;70542;53.774;-0.352;2024-03-02T01:36:25;99220;;;9.47;43
78843;BME280;70542;53.774;-0.352;2024-03-02T01:42:21;99220;;;9.746;43
78843;BME280;70542;53.774;-0.352;2024-03-02T01:48:29;99220;;;9.4;44
78843;BME280;70542;53.774;-0.352;2024-03-02T01:54:27;99220;;;8.842;45
78843;BME280;70542;53.774;-0.352;2024-03-02T02:00:28;99210;;;9.373;44
78843;BME280;70542;53.774;-0.352;2024-03-02T02:06:41;99220;;;9.319;44
78843;BME280;70542;53.774;-0.352;2024-03-02T02:12:49;99210;;;9.984;43
78843;BME280;70542;53.774;-0.352;2024-03-02T02:18:58;99210;;;10.192;42
78843;BME280;70542;53.774;-0.352;2024-03-02T02:25:06;99210;;;9.759;44
78843;BME280;70542;53.774;-0.352;2024-03-02T02:31:14;99200;;;10.089;44
78843;BME280;70542;53.774;-0.352;2024-03-02T02:37:15;99180;;;9.617;44
78843;BME280;70542;53.774;-0.352;2024-03-02T02:43:12;99170;;;9.536;46
78843;BME280;70542;53.774;-0.352;2024-03-02T02:49:08;99170;;;9.156;45
78843;BME280;70542;53.774;-0.352;2024-03-02T02:55:08;99170;;;9.284;44
78843;BME280;70542;53.774;-0.352;2024-03-02T03:01:05;99170;;;9.229;44
78843;BME280;70542;53.774;-0.352;2024-03-02T03:07:08;99170;;;9.133;45
78843;BME280;70542;53.774;-0.352;2024-03-02T03:13:04;99170;;;9.386;44
78843;BME280;70542;53.774;-0.352;2024-03-02T03:19:12;99170;;;9.388;44
78843;BME280;70542;53.774;-0.352;2024-03-02T03:25:20;99170;;;9.627;44
78843;BME280;70542;53.774;-0.352;2024-03-02T03:31:15;99170;;;9.437;44
78843;BME280;70542;53.774;-0.352;2024-03-02T03:37:23;99170;;;9.487;43
78843;BME280;70542;53.774;-0.352;2024-03-02T03:43:07;99160;;;9.551;43
78843;BME280;70542;53.774;-0.352;2024-03-02T03:49:16;99160;;;9.642;43
78843;BME280;70542;53.774;-0.352;2024-03-02T03:55:17;99160;;;9.99;42
78843;BME280;70542;53.774;-0.352;2024-03-02T04:01:14;99160;;;9.543;44
78843;BME280;70542;53.774;-0.352;2024-03-02T04:07:11;99170;;;10.248;43
78843;BME280;70542;53.774;-0.352;2024-03-02T04:13:21;99180;;;10.489;42
78843;BME280;70542;53.774;-0.352;2024-03-02T04:19:30;99190;;;10.367;42
78843;BME280;70542;53.774;-0.352;2024-03-02T04:25:25;99180;;;9.456;44
78843;BME280;70542;53.774;-0.352;2024-03-02T04:31:33;99190;;;8.963;45
78843;BME280;70542;53.774;-0.352;2024-03-02T04:37:41;99200;;;9.319;44
78843;BME280;70542;53.774;-0.352;2024-03-02T04:43:37;99200;;;9.044;46
78843;BME280;70542;53.774;-0.352;2024-03-02T04:49:44;99200;;;9.034;46
78843;BME280;70542;53.774;-0.352;2024-03-02T04:55:52;99200;;;9.255;46
78843;BME280;70542;53.774;-0.352;2024-03-02T05:01:58;99200;;;8.923;45
78843;BME280;70542;53.774;-0.352;2024-03-02T05:07:54;99200;;;8.754;45
78843;BME280;70542;53.774;-0.352;2024-03-02T05:13:50;99200;;;8.37;46
78843;BME280;70542;53.774;-0.352;2024-03-02T05:19:58;99210;;;8.513;46
78843;BME280;70542;53.774;-0.352;2024-03-02T05:26:11;99210;;;8.014;48
78843;BME280;70542;53.774;-0.352;2024-03-02T05:32:19;99210;;;7.997;46
78843;BME280;70542;53.774;-0.352;2024-03-02T05:38:26;99210;;;7.641;47
78843;BME280;70542;53.774;-0.352;2024-03-02T05:44:22;99220;;;7.635;47
78843;BME280;70542;53.774;-0.352;2024-03-02T05:50:31;99220;;;7.435;47
78843;BME280;70542;53.774;-0.352;2024-03-02T05:56:39;99210;;;7.747;47
78843;BME280;70542;53.774;-0.352;2024-03-02T06:02:48;99220;;;7.897;46
78843;BME280;70542;53.774;-0.352;2024-03-02T06:09:00;99210;;;7.937;45
78843;BME280;70542;53.774;-0.352;2024-03-02T06:14:56;99220;;;7.88;46
78843;BME280;70542;53.774;-0.352;2024-03-02T06:21:03;99230;;;7.924;46
78843;BME280;70542;53.774;-0.352;2024-03-02T06:27:11;99230;;;7.763;47
78843;BME280;70542;53.774;-0.352;2024-03-02T06:33:19;99230;;;6.993;49
78843;BME280;70542;53.774;-0.352;2024-03-02T06:39:15;99230;;;8.039;47
78843;BME280;70542;53.774;-0.352;2024-03-02T06:45:22;99250;;;7.352;49
78843;BME280;70542;53.774;-0.352;2024-03-02T06:51:31;99240;;;7.448;49
78843;BME280;70542;53.774;-0.352;2024-03-02T06:57:27;99250;;;8.112;48
78843;BME280;70542;53.774;-0.352;2024-03-02T07:03:10;99250;;;7.608;49
78843;BME280;70542;53.774;-0.352;2024-03-02T07:09:18;99260;;;7.329;49
78843;BME280;70542;53.774;-0.352;2024-03-02T07:15:13;99270;;;7.276;49
78843;BME280;70542;53.774;-0.352;2024-03-02T07:21:10;99270;;;7.835;49
78843;BME280;70542;53.774;-0.352;2024-03-02T07:27:06;99270;;;8.86;47
78843;BME280;70542;53.774;-0.352;2024-03-02T07:33:14;99270;;;8.35;50
78843;BME280;70542;53.774;-0.352;2024-03-02T07:39:10;99270;;;9.194;45
78843;BME280;70542;53.774;-0.352;2024-03-02T07:45:06;99260;;;9.526;45
78843;BME280;70542;53.774;-0.352;2024-03-02T07:51:15;99270;;;9.28;46
78843;BME280;70542;53.774;-0.352;2024-03-02T07:57:10;99270;;;8.935;49
78843;BME280;70542;53.774;-0.352;2024-03-02T08:03:12;99270;;;8.88;46
78843;BME280;70542;53.774;-0.352;2024-03-02T08:09:24;99270;;;8.128;48
78843;BME280;70542;53.774;-0.352;2024-03-02T08:15:38;99280;;;8.379;48
78843;BME280;70542;53.774;-0.352;2024-03-02T08:25:44;99280;;;8.769;47
78843;BME280;70542;53.774;-0.352;2024-03-02T08:31:40;99290;;;9.185;49
78843;BME280;70542;53.774;-0.352;2024-03-02T08:37:48;99280;;;8.487;49
78843;BME280;70542;53.774;-0.352;2024-03-02T08:44:14;99280;;;8.583;49
78843;BME280;70542;53.774;-0.352;2024-03-02T08:50:16;99280;;;7.385;51
78843;BME280;70542;53.774;-0.352;2024-03-02T08:55:55;99270;;;6.997;52
78843;BME280;70542;53.774;-0.352;2024-03-02T09:01:58;99280;;;7.009;51
78843;BME280;70542;53.774;-0.352;2024-03-02T09:08:11;99280;;;7.486;51
78843;BME280;70542;53.774;-0.352;2024-03-02T11:02:50;99280;;;7.474;53
78843;BME280;70542;53.774;-0.352;2024-03-02T11:08:49;99270;;;8.126;52
78843;BME280;70542;53.774;-0.352;2024-03-02T11:15:08;99270;;;7.235;54
78843;BME280;70542;53.774;-0.352;2024-03-02T11:21:09;99270;;;6.76;56
78843;BME280;70542;53.774;-0.352;2024-03-02T11:34:30;99260;;;8.669;50
78843;BME280;70542;53.774;-0.352;2024-03-02T11:48:16;99250;;;8.713;51
78843;BME280;70542;53.774;-0.352;2024-03-02T11:54:21;99240;;;8.858;50
78843;BME280;70542;53.774;-0.352;2024-03-02T12:00:21;99250;;;8.285;52
78843;BME280;70542;53.774;-0.352;2024-03-02T12:06:33;99240;;;8.699;51
78843;BME280;70542;53.774;-0.352;2024-03-02T12:12:35;99240;;;8.419;52
78843;BME280;70542;53.774;-0.352;2024-03-02T12:18:47;99230;;;8.66;53
78843;BME280;70542;53.774;-0.352;2024-03-02T12:25:16;99230;;;8.648;52
78843;BME280;70542;53.774;-0.352;2024-03-02T12:31:21;99220;;;9.501;49
78843;BME280;70542;53.774;-0.352;2024-03-02T12:37:22;99220;;;8.028;51
78843;BME280;70542;53.774;-0.352;2024-03-02T12:43:30;99210;;;8.515;52
78843;BME280;70542;53.774;-0.352;2024-03-02T12:49:46;99200;;;8.431;53
78843;BME280;70542;53.774;-0.352;2024-03-02T12:56:19;99200;;;7.955;54
78843;BME280;70542;53.774;-0.352;2024-03-02T13:02:26;99200;;;8.673;51
78843;BME280;70542;53.774;-0.352;2024-03-02T13:08:50;99200;;;8.418;52
78843;BME280;70542;53.774;-0.352;2024-03-02T13:15:17;99200;;;8.285;51
78843;BME280;70542;53.774;-0.352;2024-03-02T13:21:26;99190;;;9.044;50
78843;BME280;70542;53.774;-0.352;2024-03-02T13:33:40;99180;;;9.206;52
78843;BME280;70542;53.774;-0.352;2024-03-02T13:39:46;99180;;;9.233;54
78843;BME280;70542;53.774;-0.352;2024-03-02T13:45:28;99160;;;9.265;52
78843;BME280;70542;53.774;-0.352;2024-03-02T13:51:36;99160;;;9.102;51
78843;BME280;70542;53.774;-0.352;2024-03-02T13:57:49;99140;;;8.897;53
78843;BME280;70542;53.774;-0.352;2024-03-02T14:04:17;99150;;;8.073;54
78843;BME280;70542;53.774;-0.352;2024-03-02T14:10:11;99160;;;7.998;53
78843;BME280;70542;53.774;-0.352;2024-03-02T14:16:31;99160;;;8.058;53
78843;BME280;70542;53.774;-0.352;2024-03-02T14:22:32;99160;;;8.369;52
78843;BME280;70542;53.774;-0.352;2024-03-02T14:28:32;99160;;;8.0;52
78843;BME280;70542;53.774;-0.352;2024-03-02T14:35:20;99150;;;7.69;52
78843;BME280;70542;53.774;-0.352;2024-03-02T14:41:24;99150;;;7.698;52
78843;BME280;70542;53.774;-0.352;2024-03-02T14:47:41;99160;;;7.726;53
78843;BME280;70542;53.774;-0.352;2024-03-02T14:54:05;99160;;;7.654;52
78843;BME280;70542;53.774;-0.352;2024-03-02T15:01:09;99150;;;8.201;53
78843;BME280;70542;53.774;-0.352;2024-03-02T15:07:41;99160;;;7.899;52
78843;BME280;70542;53.774;-0.352;2024-03-02T15:13:57;99160;;;9.248;48
78843;BME280;70542;53.774;-0.352;2024-03-02T15:20:07;99160;;;8.354;51
78843;BME280;70542;53.774;-0.352;2024-03-02T15:26:13;99160;;;8.198;52
78843;BME280;70542;53.774;-0.352;2024-03-02T15:32:32;99160;;;8.023;53
78843;BME280;70542;53.774;-0.352;2024-03-02T15:38:49;99150;;;8.513;51
78843;BME280;70542;53.774;-0.352;2024-03-02T15:45:01;99150;;;7.817;53
78843;BME280;70542;53.774;-0.352;2024-03-02T15:51:14;99150;;;7.84;53
78843;BME280;70542;53.774;-0.352;2024-03-02T15:57:42;99150;;;8.126;52
78843;BME280;70542;53.774;-0.352;2024-03-02T16:03:39;99160;;;7.584;52
78843;BME280;70542;53.774;-0.352;2024-03-02T16:09:46;99160;;;8.381;51
78843;BME280;70542;53.774;-0.352;2024-03-02T16:15:51;99150;;;7.83;52
78843;BME280;70542;53.774;-0.352;2024-03-02T16:21:51;99170;;;8.812;50
78843;BME280;70542;53.774;-0.352;2024-03-02T16:27:50;99170;;;9.074;49
78843;BME280;70542;53.774;-0.352;2024-03-02T16:33:59;99170;;;8.995;48
78843;BME280;70542;53.774;-0.352;2024-03-02T16:40:08;99180;;;9.234;48
78843;BME280;70542;53.774;-0.352;2024-03-02T16:46:27;99180;;;9.285;48
78843;BME280;70542;53.774;-0.352;2024-03-02T16:52:31;99210;;;10.244;46
78843;BME280;70542;53.774;-0.352;2024-03-02T16:58:32;99220;;;9.118;46
78843;BME280;70542;53.774;-0.352;2024-03-02T17:04:29;99220;;;9.947;45
78843;BME280;70542;53.774;-0.352;2024-03-02T17:10:30;99240;;;10.447;43
78843;BME280;70542;53.774;-0.352;2024-03-02T17:16:52;99250;;;10.869;42
78843;BME280;70542;53.774;-0.352;2024-03-02T17:23:06;99260;;;10.419;42
78843;BME280;70542;53.774;-0.352;2024-03-02T17:29:11;99270;;;10.167;43
78843;BME280;70542;53.774;-0.352;2024-03-02T17:35:19;99270;;;10.784;42
78843;BME280;70542;53.774;-0.352;2024-03-02T17:41:15;99280;;;10.506;43
78843;BME280;70542;53.774;-0.352;2024-03-02T17:47:19;99290;;;10.37;42
78843;BME280;70542;53.774;-0.352;2024-03-02T17:53:28;99300;;;9.552;43
78843;BME280;70542;53.774;-0.352;2024-03-02T17:59:28;99310;;;9.723;43
78843;BME280;70542;53.774;-0.352;2024-03-02T18:05:24;99310;;;9.613;43
78843;BME280;70542;53.774;-0.352;2024-03-02T18:11:32;99320;;;9.777;41
78843;BME280;70542;53.774;-0.352;2024-03-02T18:17:40;99330;;;10.084;40
78843;BME280;70542;53.774;-0.352;2024-03-02T18:23:36;99340;;;9.919;42
78843;BME280;70542;53.774;-0.352;2024-03-02T18:29:46;99340;;;10.6;43
78843;BME280;70542;53.774;-0.352;2024-03-02T18:35:54;99340;;;10.674;44
78843;BME280;70542;53.774;-0.352;2024-03-02T18:42:04;99350;;;9.818;46
78843;BME280;70542;53.774;-0.352;2024-03-02T18:48:12;99360;;;10.098;45
78843;BME280;70542;53.774;-0.352;2024-03-02T18:54:25;99360;;;9.612;46
78843;BME280;70542;53.774;-0.352;2024-03-02T19:00:40;99360;;;10.033;46
78843;BME280;70542;53.774;-0.352;2024-03-02T19:06:47;99360;;;9.65;46
78843;BME280;70542;53.774;-0.352;2024-03-02T19:13:00;99370;;;9.868;47
78843;BME280;70542;53.774;-0.352;2024-03-02T19:19:02;99380;;;9.297;46
78843;BME280;70542;53.774;-0.352;2024-03-02T19:25:10;99390;;;8.48;47
78843;BME280;70542;53.774;-0.352;2024-03-02T19:31:07;99400;;;9.034;46
78843;BME280;70542;53.774;-0.352;2024-03-02T19:37:03;99410;;;8.834;47
78843;BME280;70542;53.774;-0.352;2024-03-02T19:43:03;99400;;;8.979;46
78843;BME280;70542;53.774;-0.352;2024-03-02T19:49:00;99400;;;8.886;47
78843;BME280;70542;53.774;-0.352;2024-03-02T19:55:12;99400;;;8.777;47
78843;BME280;70542;53.774;-0.352;2024-03-02T20:01:08;99400;;;10.167;44
78843;BME280;70542;53.774;-0.352;2024-03-02T20:07:15;99410;;;9.621;43
78843;BME280;70542;53.774;-0.352;2024-03-02T20:13:17;99410;;;10.24;42
78843;BME280;70542;53.774;-0.352;2024-03-02T20:19:18;99410;;;10.012;42
78843;BME280;70542;53.774;-0.352;2024-03-02T20:25:25;99410;;;9.137;44
78843;BME280;70542;53.774;-0.352;2024-03-02T20:31:27;99420;;;8.869;45
78843;BME280;70542;53.774;-0.352;2024-03-02T20:37:34;99420;;;8.36;45
78843;BME280;70542;53.774;-0.352;2024-03-02T20:43:45;99430;;;8.521;45
78843;BME280;70542;53.774;-0.352;2024-03-02T20:50:00;99430;;;9.05;45
78843;BME280;70542;53.774;-0.352;2024-03-02T20:56:08;99440;;;8.047;47
78843;BME280;70542;53.774;-0.352;2024-03-02T21:02:10;99440;;;8.351;46
78843;BME280;70542;53.774;-0.352;2024-03-02T21:08:17;99450;;;8.001;46
78843;BME280;70542;53.774;-0.352;2024-03-02T21:14:14;99460;;;8.328;46
78843;BME280;70542;53.774;-0.352;2024-03-02T21:20:22;99460;;;8.636;45
78843;BME280;70542;53.774;-0.352;2024-03-02T21:26:30;99460;;;8.869;44
78843;BME280;70542;53.774;-0.352;2024-03-02T21:32:30;99480;;;9.301;44
78843;BME280;70542;53.774;-0.352;2024-03-02T21:38:26;99480;;;9.072;44
78843;BME280;70542;53.774;-0.352;2024-03-02T21:44:23;99490;;;8.88;44
78843;BME280;70542;53.774;-0.352;2024-03-02T21:50:46;99490;;;8.444;44
78843;BME280;70542;53.774;-0.352;2024-03-02T21:56:48;99510;;;8.786;44
78843;BME280;70542;53.774;-0.352;2024-03-02T22:02:56;99520;;;8.345;44
78843;BME280;70542;53.774;-0.352;2024-03-02T22:09:09;99520;;;8.349;44
78843;BME280;70542;53.774;-0.352;2024-03-02T22:15:27;99520;;;8.75;44
78843;BME280;70542;53.774;-0.352;2024-03-02T22:21:54;99530;;;7.481;45
78843;BME280;70542;53.774;-0.352;2024-03-02T22:28:02;99530;;;8.195;43
78843;BME280;70542;53.774;-0.352;2024-03-02T22:34:25;99530;;;8.728;44
78843;BME280;70542;53.774;-0.352;2024-03-02T22:40:27;99540;;;7.861;44
78843;BME280;70542;53.774;-0.352;2024-03-02T22:46:45;99530;;;8.135;43
78843;BME280;70542;53.774;-0.352;2024-03-02T22:52:46;99540;;;8.231;43
78843;BME280;70542;53.774;-0.352;2024-03-02T22:59:03;99540;;;8.246;43
78843;BME280;70542;53.774;-0.352;2024-03-02T23:04:59;99540;;;8.366;43
78843;BME280;70542;53.774;-0.352;2024-03-02T23:11:07;99550;;;8.624;43
78843;BME280;70542;53.774;-0.352;2024-03-02T23:17:16;99550;;;7.717;43
78843;BME280;70542;53.774;-0.352;2024-03-02T23:23:31;99570;;;8.323;42
78843;BME280;70542;53.774;-0.352;2024-03-02T23:29:44;99570;;;8.095;43
78843;BME280;70542;53.774;-0.352;2024-03-02T23:35:40;99580;;;8.268;42
78843;BME280;70542;53.774;-0.352;2024-03-02T23:41:36;99590;;;8.452;42
78843;BME280;70542;53.774;-0.352;2024-03-02T23:47:43;99600;;;7.736;42
78843;BME280;70542;53.774;-0.352;2024-03-02T23:53:56;99600;;;8.504;41
